FW2912 Grou NL current weather conditions

sailwx.info

Air temperature 22.8° C
Dewpoint -36.1° C

Last reported at 2020-Aug-14 01:00 UTC.
Time now 2020-Aug-14 01:44 UTC

Location: N 53°06' E 005°51'.
View on Google Maps.

See reports from other nearby stations

  
Tides and Currents Weather Stations Pressure Air Temp Water Temp Dewpoint Dewpoint Depression Visibility Wind Speed Wind Dir Waves Ship Positions
date/time (UTC)wind fromknots sea level pressurealtimeterstation pressurevisibilityair tempwater tempwave heightnotes
2020-Aug-14 01:00 22.8
2020-Aug-14 00:50 225 1 gusting 3 22.8
2020-Aug-14 00:40 225 2 gusting 5 23.3
2020-Aug-14 00:30 225 1 gusting 6 23.3
2020-Aug-14 00:20 23.3
2020-Aug-14 00:10 180 2 gusting 3 23.3
2020-Aug-14 00:00 113 1 gusting 2 23.3
2020-Aug-13 23:00 23.3
2020-Aug-13 22:50 045 4 gusting 6 23.9
2020-Aug-13 22:40 068 2 gusting 4 24.4
2020-Aug-13 22:30 090 4 gusting 6 24.4
2020-Aug-13 22:20 068 4 gusting 6 23.9
2020-Aug-13 22:10 045 4 gusting 6 23.9
2020-Aug-13 22:00 068 3 gusting 5 23.9
2020-Aug-13 21:50 068 4 gusting 5 24.4
2020-Aug-13 21:40 068 5 gusting 6 24.4
2020-Aug-13 21:30 068 5 gusting 6 24.4
2020-Aug-13 21:20 090 6 gusting 8 24.4
2020-Aug-13 21:10 068 6 gusting 7 24.4
2020-Aug-13 20:50 045 6 gusting 7 24.4
2020-Aug-13 20:40 045 6 gusting 7 24.4
2020-Aug-13 20:30 045 5 gusting 6 25.0
2020-Aug-13 20:20 045 5 gusting 7 25.0
2020-Aug-13 20:10 045 5 gusting 6 25.0
2020-Aug-13 20:00 045 5 gusting 6 25.6
2020-Aug-13 19:50 045 5 gusting 6 25.6
2020-Aug-13 19:40 045 3 gusting 6 25.6
2020-Aug-13 19:30 045 4 gusting 6 26.1
2020-Aug-13 19:20 045 5 gusting 8 26.1
2020-Aug-13 19:10 045 5 gusting 6 26.1
2020-Aug-13 19:00 068 4 gusting 6 26.7
2020-Aug-13 18:50 068 4 gusting 6 26.7
2020-Aug-13 18:40 135 3 gusting 5 26.1
2020-Aug-13 18:30 045 6 gusting 7 26.7
2020-Aug-13 18:20 045 6 gusting 10 26.7
2020-Aug-13 18:10 045 6 gusting 8 27.2
2020-Aug-13 18:00 045 6 gusting 9 27.2
2020-Aug-13 17:50 045 6 gusting 9 27.8
2020-Aug-13 17:40 045 6 gusting 9 27.8
2020-Aug-13 17:30 045 6 gusting 9 27.8
2020-Aug-13 17:20 023 6 gusting 8 28.3
2020-Aug-13 17:10 045 6 gusting 8 28.9
2020-Aug-13 17:00 045 6 gusting 8 28.9
2020-Aug-13 16:50 045 5 gusting 6 29.4
2020-Aug-13 16:40 045 6 gusting 9 29.4
2020-Aug-13 16:30 045 5 gusting 8 30.0
2020-Aug-13 16:20 023 6 gusting 9 30.0
2020-Aug-13 16:10 023 6 gusting 8 30.0
2020-Aug-13 16:00 023 6 gusting 8 30.0
2020-Aug-13 15:50 023 6 gusting 9 30.0
2020-Aug-13 15:40 023 6 gusting 8 30.0
2020-Aug-13 15:20 068 5 gusting 6 30.0
2020-Aug-13 15:10 30.6
2020-Aug-13 15:00 090 3 gusting 4 30.0
2020-Aug-13 14:50 068 6 gusting 8 30.0
2020-Aug-13 14:40 068 5 gusting 10 30.0
2020-Aug-13 14:30 068 4 gusting 6 30.0
2020-Aug-13 14:20 068 5 gusting 6 30.0
2020-Aug-13 14:10 090 6 gusting 9 29.4
2020-Aug-13 14:00 068 6 gusting 11 29.4
2020-Aug-13 13:50 090 4 gusting 8 29.4
2020-Aug-13 13:40 090 5 gusting 8 29.4
2020-Aug-13 13:30 090 6 gusting 9 29.4
2020-Aug-13 13:20 090 5 gusting 9 29.4
2020-Aug-13 13:10 090 6 gusting 10 29.4
2020-Aug-13 13:00 068 6 gusting 9 28.9
2020-Aug-13 12:50 090 7 gusting 11 28.9
2020-Aug-13 12:40 090 6 gusting 7 28.9
2020-Aug-13 12:30 090 7 gusting 11 28.9
2020-Aug-13 12:20 090 7 gusting 11 28.9
2020-Aug-13 12:10 090 7 gusting 10 28.3
2020-Aug-13 12:00 090 6 gusting 8 28.3
2020-Aug-13 11:50 068 7 gusting 13 28.3
2020-Aug-13 11:40 068 6 gusting 9 27.8
2020-Aug-13 11:30 068 9 gusting 13 27.8
2020-Aug-13 11:20 068 9 gusting 13 27.8
2020-Aug-13 11:10 090 7 gusting 9 27.2
2020-Aug-13 10:50 068 7 gusting 10 26.7
2020-Aug-13 10:40 045 7 gusting 12 26.7
2020-Aug-13 10:30 068 6 gusting 10 26.7
2020-Aug-13 10:20 068 6 gusting 8 26.7
2020-Aug-13 10:10 068 6 gusting 10 26.1
2020-Aug-13 10:00 045 6 gusting 10 26.1
2020-Aug-13 09:50 045 6 gusting 8 26.1
2020-Aug-13 09:40 068 6 gusting 10 26.1
2020-Aug-13 09:30 068 7 gusting 10 25.6
2020-Aug-13 09:20 068 7 gusting 9 25.0
2020-Aug-13 09:10 068 5 gusting 8 25.0
2020-Aug-13 09:00 090 5 gusting 8 25.0
2020-Aug-13 08:50 068 6 gusting 9 24.4
2020-Aug-13 08:40 045 6 gusting 7 24.4
2020-Aug-13 08:30 045 6 gusting 7 24.4
2020-Aug-13 08:20 068 6 gusting 8 25.0
2020-Aug-13 08:10 090 5 gusting 7 24.4
2020-Aug-13 08:00 090 3 gusting 6 24.4
2020-Aug-13 07:50 090 4 gusting 6 24.4
2020-Aug-13 07:40 113 3 gusting 5 23.9
2020-Aug-13 07:30 113 2 gusting 5 23.3
2020-Aug-13 07:20 090 2 gusting 6 22.8
2020-Aug-13 07:10 090 4 gusting 6 22.2
2020-Aug-13 07:00 090 6 gusting 7 22.2
2020-Aug-13 06:50 090 4 gusting 7 22.2
2020-Aug-13 06:40 090 6 gusting 7 21.7
2020-Aug-13 06:30 090 5 gusting 6 21.7
2020-Aug-13 06:20 090 5 gusting 9 21.7
2020-Aug-13 06:10 090 5 gusting 7 21.1
2020-Aug-13 06:00 068 6 gusting 7 21.1
2020-Aug-13 05:50 090 6 gusting 6 21.1
2020-Aug-13 05:40 090 6 gusting 8 21.1
2020-Aug-13 05:30 090 4 gusting 6 21.1
2020-Aug-13 05:20 068 5 gusting 6 21.1
2020-Aug-13 05:10 068 6 gusting 7 20.6
2020-Aug-13 05:00 068 5 gusting 7 20.6
2020-Aug-13 04:50 068 5 gusting 6 20.6
2020-Aug-13 04:40 068 5 gusting 6 20.6
2020-Aug-13 04:30 068 3 gusting 5 21.1
2020-Aug-13 04:20 068 3 gusting 4 21.1
2020-Aug-13 04:10 068 3 gusting 5 21.1
2020-Aug-13 04:00 068 4 gusting 5 21.1
2020-Aug-13 03:50 068 3 gusting 4 21.1
2020-Aug-13 03:40 090 2 gusting 4 21.1
2020-Aug-13 03:30 068 4 gusting 6 21.1
2020-Aug-13 03:20 113 1 gusting 3 21.7
2020-Aug-13 03:10 113 1 gusting 3 21.1
2020-Aug-13 03:00 113 0 gusting 1 21.7
2020-Aug-13 02:50 113 1 gusting 2 21.7
2020-Aug-13 02:40 090 1 gusting 4 21.7
2020-Aug-13 02:30 113 1 gusting 2 21.7
2020-Aug-13 02:20 113 1 gusting 3 21.7
2020-Aug-13 02:10 068 2 gusting 3 21.7
2020-Aug-13 02:00 068 3 gusting 4 21.7
2020-Aug-13 01:50 068 2 gusting 3 21.7
2020-Aug-13 01:40 068 2 gusting 4 21.7
2020-Aug-13 01:30 068 4 gusting 5 21.7
2020-Aug-13 01:20 068 4 gusting 5 22.2
2020-Aug-13 01:10 068 5 gusting 6 22.8
2020-Aug-13 01:00 090 5 gusting 6 22.8
2020-Aug-13 00:50 090 5 gusting 6 22.8
2020-Aug-13 00:40 090 4 gusting 6 22.8
2020-Aug-13 00:30 090 5 gusting 6 22.8
2020-Aug-13 00:20 068 4 gusting 6 22.8
2020-Aug-13 00:10 068 4 gusting 6 23.3
2020-Aug-13 00:00 068 5 gusting 7 23.3
2020-Aug-12 23:50 068 3 gusting 5 22.2
2020-Aug-12 23:40 068 2 gusting 4 22.8
2020-Aug-12 23:30 068 2 gusting 3 22.8
2020-Aug-12 23:20 068 2 gusting 4 23.3
2020-Aug-12 23:10 068 1 gusting 2 23.9
2020-Aug-12 23:00 068 2 gusting 4 23.9
2020-Aug-12 22:50 068 3 gusting 4 23.9
2020-Aug-12 22:40 068 4 gusting 6 24.4
2020-Aug-12 22:30 090 5 gusting 6 24.4
2020-Aug-12 22:20 068 3 gusting 5 23.9
2020-Aug-12 22:10 068 3 gusting 5 23.9
2020-Aug-12 22:00 068 3 gusting 5 23.9
2020-Aug-12 21:50 068 1 gusting 3 23.9
2020-Aug-12 21:40 068 3 gusting 6 24.4
2020-Aug-12 21:30 068 3 gusting 5 25.0
2020-Aug-12 21:20 068 2 gusting 3 25.0
2020-Aug-12 21:10 068 3 gusting 4 25.6
2020-Aug-12 21:00 068 3 gusting 4 25.6
2020-Aug-12 20:50 045 1 gusting 2 25.0
2020-Aug-12 20:40 045 3 gusting 4 25.0
2020-Aug-12 20:30 045 2 gusting 3 25.6
2020-Aug-12 20:20 045 0 gusting 2 25.6
2020-Aug-12 20:10 045 2 gusting 3 25.6
2020-Aug-12 20:00 045 2 gusting 3 25.6
2020-Aug-12 19:50 045 2 gusting 3 26.1
2020-Aug-12 19:40 045 3 gusting 4 26.7
2020-Aug-12 19:30 045 1 gusting 3 26.7
2020-Aug-12 19:20 045 2 gusting 3 26.7
2020-Aug-12 19:10 045 3 gusting 3 26.1
2020-Aug-12 19:00 045 1 gusting 2 26.7
2020-Aug-12 18:50 045 1 gusting 2 26.7
2020-Aug-12 18:40 045 3 gusting 4 27.2
2020-Aug-12 18:30 045 2 gusting 4 27.2
2020-Aug-12 18:20 045 2 gusting 4 27.8
2020-Aug-12 18:10 045 4 gusting 6 28.3
2020-Aug-12 18:00 090 3 gusting 4 28.9
2020-Aug-12 17:50 090 3 gusting 5 29.4
2020-Aug-12 17:40 068 4 gusting 6 29.4
2020-Aug-12 17:30 068 3 gusting 6 30.0
2020-Aug-12 17:20 068 3 gusting 4 30.6
2020-Aug-12 17:10 068 2 gusting 5 30.6
2020-Aug-12 17:00 090 2 gusting 3 30.6
2020-Aug-12 16:50 090 2 gusting 3 30.6
2020-Aug-12 16:40 090 4 gusting 5 30.6
2020-Aug-12 16:30 090 4 gusting 6 31.1
2020-Aug-12 16:20 068 5 gusting 6 31.1
2020-Aug-12 16:10 090 1 gusting 3 31.7
2020-Aug-12 16:00 113 0 gusting 2 31.7
2020-Aug-12 15:50 090 2 gusting 5 31.7
2020-Aug-12 15:40 090 1 gusting 3 31.7
2020-Aug-12 15:30 135 1 gusting 5 31.7
2020-Aug-12 15:20 090 3 gusting 5 31.1
2020-Aug-12 15:10 090 3 gusting 5 31.1
2020-Aug-12 15:00 090 2 gusting 4 31.7
2020-Aug-12 14:50 068 1 gusting 3 31.7
2020-Aug-12 14:40 090 3 gusting 5 31.7
2020-Aug-12 14:30 090 0 gusting 2 31.7
2020-Aug-12 14:20 135 3 gusting 5 31.7
2020-Aug-12 14:10 090 1 gusting 4 31.7
2020-Aug-12 14:00 090 2 gusting 5 31.7
2020-Aug-12 13:50 090 0 gusting 4 31.7
2020-Aug-12 13:40 135 1 gusting 6 31.7
2020-Aug-12 13:30 135 4 gusting 6 31.1
2020-Aug-12 13:20 068 3 gusting 7 31.1
2020-Aug-12 13:10 158 5 gusting 6 31.1
2020-Aug-12 13:00 090 4 gusting 7 30.6
2020-Aug-12 12:50 090 5 gusting 7 30.6
2020-Aug-12 12:40 090 4 gusting 6 30.0
2020-Aug-12 12:30 090 5 gusting 9 30.0
2020-Aug-12 12:20 090 6 gusting 13 29.4
2020-Aug-12 12:10 090 6 gusting 10 29.4
2020-Aug-12 12:00 090 6 gusting 9 29.4
2020-Aug-12 11:50 090 6 gusting 10 29.4
2020-Aug-12 11:40 090 5 gusting 9 29.4
2020-Aug-12 11:30 090 6 gusting 8 29.4
2020-Aug-12 11:20 090 5 gusting 8 28.9
2020-Aug-12 11:10 090 7 gusting 10 28.9
2020-Aug-12 11:00 090 7 gusting 11 28.9
2020-Aug-12 10:50 090 7 gusting 10 28.9
2020-Aug-12 10:40 090 7 gusting 13 28.3
2020-Aug-12 10:30 090 6 gusting 8 28.3
2020-Aug-12 10:20 090 6 gusting 10 28.3
2020-Aug-12 10:10 090 5 gusting 9 27.8
2020-Aug-12 10:00 090 6 gusting 7 27.2
2020-Aug-12 09:50 090 6 gusting 8 27.2
2020-Aug-12 09:40 090 5 gusting 9 27.2
2020-Aug-12 09:30 090 3 gusting 5 26.7
2020-Aug-12 09:20 090 5 gusting 11 26.7
2020-Aug-12 09:10 090 4 gusting 6 26.7
2020-Aug-12 09:00 090 6 gusting 10 26.1
2020-Aug-12 08:50 090 6 gusting 8 26.1
2020-Aug-12 08:40 090 4 gusting 6 25.6
2020-Aug-12 08:30 113 4 gusting 6 25.6
2020-Aug-12 08:20 113 6 gusting 9 25.0
2020-Aug-12 08:10 113 6 gusting 10 25.0
2020-Aug-12 08:00 090 6 gusting 10 24.4
2020-Aug-12 07:50 090 6 gusting 11 24.4
2020-Aug-12 07:40 090 6 gusting 7 24.4
2020-Aug-12 07:30 113 6 gusting 12 24.4
2020-Aug-12 07:20 090 5 gusting 11 23.9
2020-Aug-12 07:10 113 5 gusting 8 23.9
2020-Aug-12 07:00 090 5 gusting 9 23.3
2020-Aug-12 06:50 090 6 gusting 10 23.3
2020-Aug-12 06:40 090 6 gusting 9 22.8
2020-Aug-12 06:30 090 5 gusting 7 22.8
2020-Aug-12 06:20 090 4 gusting 7 22.2
2020-Aug-12 06:10 090 5 gusting 8 22.2
2020-Aug-12 06:00 090 5 gusting 7 21.7
2020-Aug-12 05:50 090 6 gusting 9 21.7
2020-Aug-12 05:40 113 6 gusting 9 21.7
2020-Aug-12 05:30 090 7 gusting 12 22.2
2020-Aug-12 05:20 090 7 gusting 10 22.2
2020-Aug-12 05:10 090 6 gusting 8 21.7
2020-Aug-12 05:00 090 6 gusting 7 21.7
2020-Aug-12 04:50 090 6 gusting 8 21.7
2020-Aug-12 04:40 090 6 gusting 7 21.7
2020-Aug-12 04:30 090 4 gusting 6 21.7
2020-Aug-12 04:20 113 4 gusting 7 21.7
2020-Aug-12 04:10 090 4 gusting 6 22.2
2020-Aug-12 04:00 090 6 gusting 8 22.2
2020-Aug-12 03:50 090 6 gusting 10 22.2
2020-Aug-12 03:40 090 6 gusting 8 22.2
2020-Aug-12 03:30 090 5 gusting 7 22.2
2020-Aug-12 03:20 090 5 gusting 7 22.2
2020-Aug-12 03:10 090 6 gusting 7 22.2
2020-Aug-12 03:00 090 6 gusting 8 22.8
2020-Aug-12 02:50 113 5 gusting 8 22.8
2020-Aug-12 02:40 113 6 gusting 9 22.8
2020-Aug-12 02:30 113 5 gusting 8 22.8
2020-Aug-12 02:20 113 4 gusting 6 22.8
2020-Aug-12 02:10 113 4 gusting 8 23.3
2020-Aug-12 02:00 113 5 gusting 6 23.3
2020-Aug-12 01:50 090 5 gusting 9 23.3
2020-Aug-12 01:40 090 4 gusting 7 23.3
2020-Aug-12 01:30 113 5 gusting 10 23.9
2020-Aug-12 01:20 113 5 gusting 7 23.9
2020-Aug-12 01:10 090 6 gusting 8 23.9
2020-Aug-12 01:00 090 6 gusting 8 23.9